Time;durP1;ratioP1;P1;durP2;ratioP2;P2;SDS_P1;SDS_P2;PMS_P1;PMS_P2;Temp;Humidity;BMP_temperature;BMP_pressure;BME280_temperature;BME280_humidity;BME280_pressure;Samples;Min_cycle;Max_cycle;Signal;HPM_P1;HPM_P2
2022/12/25 00:00:53;;;;;;;6.95;4.32;;;20.80;71.60;;;;;;5027502;28;20189;-44
2022/12/25 00:03:20;;;;;;;6.22;4.32;;;20.80;71.40;;;;;;5024569;28;20589;-46
2022/12/25 00:05:46;;;;;;;5.60;4.00;;;20.90;71.30;;;;;;5028599;28;20198;-42
2022/12/25 00:08:13;;;;;;;6.75;4.32;;;20.80;71.10;;;;;;5030484;28;20200;-46
2022/12/25 00:10:40;;;;;;;6.43;4.65;;;20.80;71.10;;;;;;5032348;28;20204;-44
2022/12/25 00:13:07;;;;;;;6.60;3.67;;;20.80;71.10;;;;;;5034041;28;20723;-44
2022/12/25 00:15:33;;;;;;;6.35;4.43;;;20.80;71.10;;;;;;5034700;28;20219;-46
2022/12/25 00:18:01;;;;;;;6.53;4.35;;;20.80;71.20;;;;;;5018420;28;20204;-46
2022/12/25 00:20:28;;;;;;;5.50;3.90;;;20.70;71.10;;;;;;5025564;28;20221;-43
2022/12/25 00:22:55;;;;;;;7.32;3.83;;;20.70;71.20;;;;;;5041806;28;20199;-45
2022/12/25 00:25:21;;;;;;;8.40;4.28;;;20.70;71.20;;;;;;5029874;28;20265;-44
2022/12/25 00:27:48;;;;;;;7.05;4.43;;;20.60;71.20;;;;;;5030621;28;20212;-47
2022/12/25 00:30:15;;;;;;;5.95;4.00;;;20.60;71.30;;;;;;5029419;28;20196;-43
2022/12/25 00:32:41;;;;;;;4.68;3.70;;;20.60;71.30;;;;;;5025046;28;20200;-43
2022/12/25 00:35:10;;;;;;;5.88;4.53;;;20.60;71.30;;;;;;5036357;28;20280;-46
2022/12/25 00:37:36;;;;;;;5.15;3.70;;;20.70;71.40;;;;;;5021498;28;20573;-45
2022/12/25 00:40:04;;;;;;;4.75;3.50;;;20.70;71.00;;;;;;5034956;28;20205;-45
2022/12/25 00:42:30;;;;;;;5.35;3.88;;;20.80;70.90;;;;;;5030792;28;20200;-47
2022/12/25 00:44:57;;;;;;;5.50;3.75;;;20.80;70.80;;;;;;5028214;28;20218;-45
2022/12/25 00:47:24;;;;;;;6.57;4.07;;;20.70;70.70;;;;;;5022778;28;20201;-46
2022/12/25 00:49:51;;;;;;;5.93;4.50;;;20.70;70.70;;;;;;5027508;28;20189;-43
2022/12/25 00:52:19;;;;;;;4.65;4.22;;;20.70;70.80;;;;;;5035563;28;20203;-46
2022/12/25 00:54:45;;;;;;;4.05;2.95;;;20.70;70.90;;;;;;5030218;28;20203;-45
2022/12/25 00:57:12;;;;;;;4.90;4.28;;;20.70;70.90;;;;;;5029202;28;20207;-42
2022/12/25 00:59:39;;;;;;;5.65;3.35;;;20.60;70.80;;;;;;5030082;28;20680;-45
2022/12/25 01:02:23;;;;;;;6.20;3.60;;;20.60;70.80;;;;;;5032040;28;20351;-45
2022/12/25 01:04:51;;;;;;;4.30;3.30;;;20.60;70.80;;;;;;5034564;28;20236;-45
2022/12/25 01:07:20;;;;;;;5.57;3.67;;;20.60;70.90;;;;;;5026310;28;20190;-44
2022/12/25 01:12:33;;;;;;;7.78;3.90;;;20.50;71.70;;;;;;5031183;28;20677;-46
2022/12/25 01:15:00;;;;;;;6.18;3.45;;;20.50;70.90;;;;;;5027055;28;20205;-47
2022/12/25 01:17:27;;;;;;;4.93;3.40;;;20.50;70.90;;;;;;5030869;28;20242;-46
2022/12/25 01:19:54;;;;;;;4.47;3.55;;;20.60;70.80;;;;;;5032723;28;20696;-44
2022/12/25 01:22:22;;;;;;;4.90;3.63;;;20.70;70.70;;;;;;5031284;28;20196;-43
2022/12/25 01:24:48;;;;;;;4.90;3.00;;;20.70;70.60;;;;;;5032422;28;20221;-43
2022/12/25 01:27:15;;;;;;;4.20;3.55;;;20.70;70.60;;;;;;5033834;28;20202;-46
2022/12/25 01:29:42;;;;;;;4.47;3.78;;;20.60;70.60;;;;;;5029068;28;20204;-46
2022/12/25 01:32:09;;;;;;;4.10;2.88;;;20.60;70.50;;;;;;5028638;28;20196;-40
2022/12/25 01:34:35;;;;;;;3.42;2.80;;;20.60;70.60;;;;;;5031304;28;20287;-47
2022/12/25 01:37:02;;;;;;;4.22;3.58;;;20.60;70.60;;;;;;5028269;28;20680;-42
2022/12/25 01:39:31;;;;;;;5.70;4.10;;;20.60;70.60;;;;;;5032804;28;20192;-42
2022/12/25 01:41:58;;;;;;;3.92;3.47;;;20.50;70.50;;;;;;5031057;28;20204;-46
2022/12/25 01:45:01;;;;;;;5.32;3.45;;;20.50;70.60;;;;;;5030274;28;20230;-48
2022/12/25 01:47:28;;;;;;;4.47;3.45;;;20.50;70.50;;;;;;5034729;28;20199;-43
2022/12/25 01:49:55;;;;;;;4.47;3.65;;;20.50;70.60;;;;;;5027438;28;20223;-46
2022/12/25 01:52:24;;;;;;;5.03;3.30;;;20.50;70.70;;;;;;5023672;28;20195;-42
2022/12/25 01:54:55;;;;;;;3.92;3.25;;;20.40;70.60;;;;;;5038941;28;20212;-46
2022/12/25 01:57:25;;;;;;;3.83;3.20;;;20.40;70.70;;;;;;5028787;28;20212;-40
2022/12/25 01:59:52;;;;;;;4.82;3.45;;;20.40;70.70;;;;;;5032830;28;20192;-42
2022/12/25 02:02:20;;;;;;;4.35;3.13;;;20.50;70.60;;;;;;5023470;28;20208;-43
2022/12/25 02:04:50;;;;;;;4.75;3.25;;;20.60;70.60;;;;;;5023290;28;20316;-44
2022/12/25 02:07:19;;;;;;;3.58;3.08;;;20.60;70.40;;;;;;5028934;28;20207;-46
2022/12/25 02:09:47;;;;;;;2.83;2.20;;;20.60;70.40;;;;;;5028587;28;20209;-43
2022/12/25 02:12:20;;;;;;;3.53;3.17;;;20.60;70.40;;;;;;5029504;28;20196;-45
2022/12/25 02:14:49;;;;;;;3.88;2.90;;;20.50;70.30;;;;;;5036969;28;20207;-48
2022/12/25 02:17:28;;;;;;;3.97;3.10;;;20.50;70.40;;;;;;5030590;28;20225;-43
2022/12/25 02:20:16;;;;;;;3.45;3.00;;;20.50;70.40;;;;;;5025447;28;20231;-45
2022/12/25 02:22:54;;;;;;;3.53;2.97;;;20.50;70.50;;;;;;5025209;28;20200;-44
2022/12/25 02:25:36;;;;;;;4.70;3.17;;;20.50;70.40;;;;;;5037431;28;20709;-48
2022/12/25 02:28:13;;;;;;;4.65;3.67;;;20.40;70.30;;;;;;5022781;28;20905;-44
2022/12/25 02:30:44;;;;;;;3.55;2.88;;;20.40;70.30;;;;;;5028075;28;20679;-43
2022/12/25 02:36:05;;;;;;;3.72;2.90;;;20.40;70.40;;;;;;5033044;28;20208;-44
2022/12/25 02:38:36;;;;;;;5.28;3.10;;;20.40;70.50;;;;;;5021332;28;20192;-41
2022/12/25 02:41:08;;;;;;;5.68;3.60;;;20.30;70.40;;;;;;5030898;28;20201;-47
2022/12/25 03:11:29;;;;;;;3.85;2.70;;;20.40;70.20;;;;;;5015228;28;20255;-43
2022/12/25 03:11:46;;;;;;;2.95;2.22;;;20.40;70.30;;;;;;5029196;28;20211;-40
2022/12/25 03:16:59;;;;;;;3.53;2.85;;;20.30;70.20;;;;;;5030990;28;20323;-42
2022/12/25 03:27:52;;;;;;;4.05;2.40;;;20.30;70.40;;;;;;5031752;28;20216;-44
2022/12/25 03:33:14;;;;;;;3.30;2.40;;;20.20;70.40;;;;;;5023582;28;20202;-44
2022/12/25 03:35:46;;;;;;;2.85;2.55;;;20.20;70.50;;;;;;5029319;28;20257;-44
2022/12/25 04:36:41;;;;;;;2.83;2.60;;;20.30;70.00;;;;;;5023045;28;20242;-44
2022/12/25 04:39:10;;;;;;;2.75;2.25;;;20.30;70.00;;;;;;5024480;28;20657;-44
2022/12/25 04:41:36;;;;;;;3.10;2.40;;;20.30;70.00;;;;;;5031685;28;20223;-44
2022/12/25 04:44:04;;;;;;;3.38;2.25;;;20.30;70.00;;;;;;5029359;28;20224;-45
2022/12/25 04:46:31;;;;;;;3.05;2.28;;;20.20;70.00;;;;;;5020397;28;20207;-41
2022/12/25 04:48:58;;;;;;;2.60;1.63;;;20.20;70.10;;;;;;5037154;28;20574;-45
2022/12/25 04:51:25;;;;;;;2.25;1.95;;;20.20;70.10;;;;;;5026036;28;20200;-42
2022/12/25 04:53:53;;;;;;;3.17;2.40;;;20.20;70.10;;;;;;5025785;28;20207;-45
2022/12/25 04:56:21;;;;;;;2.40;1.92;;;20.10;70.00;;;;;;5031196;28;20200;-47
2022/12/25 04:58:48;;;;;;;2.47;2.20;;;20.10;70.00;;;;;;5022436;28;20211;-45
2022/12/25 05:01:16;;;;;;;2.33;2.13;;;20.30;70.20;;;;;;5030820;28;20603;-45
2022/12/25 05:03:43;;;;;;;2.00;1.80;;;20.40;69.50;;;;;;5028247;28;20223;-42
2022/12/25 05:06:10;;;;;;;2.78;1.80;;;20.50;69.20;;;;;;5033923;28;20225;-42
2022/12/25 05:08:37;;;;;;;3.03;2.20;;;20.50;69.10;;;;;;5027462;28;20200;-43
2022/12/25 05:11:07;;;;;;;2.85;2.00;;;20.50;69.10;;;;;;5030865;28;20204;-44
2022/12/25 05:13:36;;;;;;;2.20;1.85;;;20.60;69.00;;;;;;5026572;28;20200;-44
2022/12/25 05:16:05;;;;;;;2.60;2.40;;;20.70;68.70;;;;;;5025993;28;20204;-42
2022/12/25 05:18:32;;;;;;;2.63;2.08;;;20.80;68.50;;;;;;5029864;28;20196;-43
2022/12/25 05:20:58;;;;;;;2.85;2.20;;;20.90;68.30;;;;;;5027643;28;20430;-42
2022/12/25 05:23:25;;;;;;;1.90;1.35;;;21.00;67.90;;;;;;5028412;28;20197;-47
2022/12/25 05:25:52;;;;;;;2.30;2.03;;;21.10;67.90;;;;;;5028079;28;20232;-44
2022/12/25 05:28:18;;;;;;;2.95;2.15;;;21.10;67.70;;;;;;5027321;28;20196;-44
2022/12/25 05:30:46;;;;;;;2.45;2.03;;;21.30;67.50;;;;;;5025334;28;20207;-46
2022/12/25 05:33:13;;;;;;;2.17;1.80;;;21.30;67.40;;;;;;5017275;28;20197;-44
2022/12/25 05:35:40;;;;;;;2.03;1.83;;;21.30;67.30;;;;;;5029817;28;20201;-44
2022/12/25 05:38:08;;;;;;;2.13;1.70;;;21.30;67.10;;;;;;5032754;28;20204;-41
2022/12/25 05:40:38;;;;;;;2.38;2.10;;;21.40;67.00;;;;;;5035630;28;20222;-44
2022/12/25 05:43:04;;;;;;;2.15;1.95;;;21.40;66.90;;;;;;5024485;28;20196;-45
2022/12/25 05:45:31;;;;;;;2.80;2.00;;;21.40;66.90;;;;;;5036063;28;20244;-43
2022/12/25 05:47:59;;;;;;;3.33;2.03;;;21.40;67.00;;;;;;5032371;28;20200;-42
2022/12/25 05:50:26;;;;;;;2.35;1.90;;;21.40;67.30;;;;;;5035160;28;20200;-46
2022/12/25 05:52:53;;;;;;;2.17;1.90;;;21.30;67.30;;;;;;5035089;28;20203;-45
2022/12/25 05:55:19;;;;;;;2.47;2.10;;;21.30;67.40;;;;;;5032409;28;20211;-48
2022/12/25 05:57:46;;;;;;;2.00;1.80;;;21.20;67.40;;;;;;5036906;28;20213;-45
2022/12/25 06:00:13;;;;;;;2.50;2.05;;;21.30;67.50;;;;;;5030499;28;20201;-45
2022/12/25 06:02:40;;;;;;;2.88;2.38;;;21.30;67.30;;;;;;5031605;28;20203;-42
2022/12/25 06:05:09;;;;;;;2.30;1.90;;;21.40;67.10;;;;;;5033360;28;20213;-45
2022/12/25 06:07:35;;;;;;;2.53;1.60;;;21.50;67.00;;;;;;5031134;28;20685;-42
2022/12/25 06:10:02;;;;;;;1.50;1.40;;;21.50;67.00;;;;;;5034826;28;20207;-46
2022/12/25 06:12:29;;;;;;;2.30;1.63;;;21.50;67.00;;;;;;5031226;28;20208;-46
2022/12/25 06:14:55;;;;;;;2.05;1.83;;;21.50;67.00;;;;;;5035579;28;20477;-46
2022/12/25 06:17:24;;;;;;;3.10;1.80;;;21.40;67.00;;;;;;5025100;28;20197;-45
2022/12/25 06:19:51;;;;;;;2.75;2.35;;;21.40;67.90;;;;;;5032567;28;20213;-47
2022/12/25 06:22:19;;;;;;;2.03;1.83;;;21.40;67.30;;;;;;5029129;28;20200;-43
2022/12/25 06:24:46;;;;;;;1.98;1.63;;;21.30;67.20;;;;;;5030545;28;20230;-43
2022/12/25 06:27:13;;;;;;;2.00;1.80;;;21.30;67.30;;;;;;5031486;28;20670;-44
2022/12/25 06:29:39;;;;;;;2.38;1.67;;;21.40;67.40;;;;;;5027078;28;20599;-45
2022/12/25 06:32:06;;;;;;;2.20;1.57;;;21.40;67.20;;;;;;5023128;28;20192;-43
2022/12/25 06:34:33;;;;;;;2.25;1.80;;;21.40;67.10;;;;;;5028222;28;20482;-44
2022/12/25 06:36:59;;;;;;;2.00;1.63;;;21.40;66.90;;;;;;5035283;28;20193;-45
2022/12/25 06:39:27;;;;;;;2.60;1.75;;;21.50;67.00;;;;;;5027142;28;20196;-46
2022/12/25 06:41:54;;;;;;;1.42;1.33;;;21.50;66.80;;;;;;5032730;28;20688;-47
2022/12/25 06:44:21;;;;;;;1.88;1.45;;;21.50;66.70;;;;;;5023178;28;20205;-45
2022/12/25 06:46:48;;;;;;;1.70;1.60;;;21.60;66.80;;;;;;5029325;28;20205;-41
2022/12/25 06:49:14;;;;;;;2.10;1.70;;;21.50;66.60;;;;;;5034548;28;20200;-42
2022/12/25 06:51:41;;;;;;;2.85;1.70;;;21.60;66.70;;;;;;5033753;28;20473;-44
2022/12/25 06:54:08;;;;;;;1.48;1.38;;;21.60;66.70;;;;;;5030331;28;20197;-42
2022/12/25 06:56:37;;;;;;;2.13;1.80;;;21.60;66.80;;;;;;5035774;28;20204;-42
2022/12/25 06:59:05;;;;;;;1.38;1.10;;;21.50;66.80;;;;;;5031212;28;20595;-47
2022/12/25 07:01:36;;;;;;;1.88;1.60;;;21.50;66.80;;;;;;5031009;28;20207;-43
2022/12/25 07:04:05;;;;;;;1.42;1.30;;;21.40;67.30;;;;;;5032985;28;20664;-42
2022/12/25 07:06:32;;;;;;;2.03;1.65;;;21.50;67.00;;;;;;5028151;28;20220;-42
2022/12/25 07:08:59;;;;;;;1.92;1.35;;;21.50;67.10;;;;;;5031150;28;20279;-45
2022/12/25 07:11:25;;;;;;;2.50;1.70;;;21.40;66.90;;;;;;5036968;28;20206;-44
2022/12/25 07:13:53;;;;;;;4.03;1.47;;;21.50;67.30;;;;;;5022266;28;20951;-44
2022/12/25 07:16:20;;;;;;;3.88;1.50;;;21.50;67.20;;;;;;5027407;28;20451;-44
2022/12/25 07:18:47;;;;;;;7.85;1.50;;;21.50;67.20;;;;;;5046849;28;20231;-41
2022/12/25 07:21:15;;;;;;;3.05;1.33;;;21.50;67.70;;;;;;5031486;28;20667;-42
2022/12/25 07:23:42;;;;;;;4.78;1.38;;;21.50;67.60;;;;;;5023042;28;20203;-41
2022/12/25 07:26:10;;;;;;;6.55;1.52;;;21.50;67.50;;;;;;5031825;28;20623;-41
2022/12/25 07:28:37;;;;;;;5.05;2.42;;;21.40;67.80;;;;;;5022166;28;20787;-42
2022/12/25 07:31:09;;;;;;;4.38;1.88;;;21.40;67.70;;;;;;5035035;28;20208;-43
2022/12/25 07:33:36;;;;;;;2.55;1.80;;;21.20;67.40;;;;;;5027132;28;20577;-41
2022/12/25 07:36:04;;;;;;;1.75;1.65;;;21.00;68.00;;;;;;5033361;28;20197;-42
2022/12/25 07:38:30;;;;;;;1.92;1.48;;;21.00;68.50;;;;;;5021856;28;20208;-41
2022/12/25 07:40:57;;;;;;;2.45;1.80;;;21.10;68.10;;;;;;5028174;28;20192;-43
2022/12/25 07:43:24;;;;;;;2.78;1.65;;;21.30;67.80;;;;;;5021332;28;20678;-42
2022/12/25 07:45:54;;;;;;;1.80;1.42;;;21.40;67.60;;;;;;5028115;28;20224;-41
2022/12/25 07:48:23;;;;;;;2.50;1.45;;;21.40;67.50;;;;;;5020577;28;20196;-45
2022/12/25 07:50:54;;;;;;;2.53;1.60;;;21.40;67.40;;;;;;5030136;28;20199;-44
2022/12/25 07:53:21;;;;;;;1.67;1.58;;;21.40;67.40;;;;;;5019432;28;20605;-42
2022/12/25 07:55:48;;;;;;;1.52;1.40;;;21.40;67.40;;;;;;5030497;28;20581;-44
2022/12/25 07:58:14;;;;;;;2.33;1.40;;;21.50;67.60;;;;;;5035540;28;20204;-41
2022/12/25 08:00:41;;;;;;;2.20;1.75;;;21.50;67.60;;;;;;5022749;28;20200;-45
2022/12/25 08:03:08;;;;;;;1.45;1.35;;;21.40;67.70;;;;;;5020394;28;20196;-41
2022/12/25 08:05:36;;;;;;;2.20;2.00;;;21.40;68.60;;;;;;5022579;28;20232;-42
2022/12/25 08:08:02;;;;;;;3.58;1.50;;;21.30;69.00;;;;;;5019968;28;20199;-43
2022/12/25 08:10:29;;;;;;;3.55;3.03;;;21.30;69.90;;;;;;5030561;28;20203;-43
2022/12/25 08:12:56;;;;;;;1.52;1.27;;;21.40;69.70;;;;;;5029170;28;20196;-43
2022/12/25 08:15:22;;;;;;;5.78;1.52;;;21.50;70.10;;;;;;5026155;28;20240;-44
2022/12/25 08:17:49;;;;;;;4.20;1.30;;;21.50;70.50;;;;;;5035517;28;20196;-43
2022/12/25 08:20:16;;;;;;;5.55;1.20;;;21.50;71.60;;;;;;5025645;28;20534;-45
2022/12/25 08:22:44;;;;;;;1.80;1.25;;;21.50;70.90;;;;;;5025760;28;20205;-43
2022/12/25 08:25:10;;;;;;;2.20;1.42;;;21.50;70.80;;;;;;5028196;28;20219;-41
2022/12/25 08:27:37;;;;;;;3.08;1.77;;;21.50;70.90;;;;;;5024573;28;20547;-46
2022/12/25 08:30:05;;;;;;;1.42;1.20;;;21.50;70.90;;;;;;5023446;28;20226;-45
2022/12/25 08:32:32;;;;;;;1.75;1.40;;;21.40;70.80;;;;;;5016516;28;20205;-42
2022/12/25 08:34:59;;;;;;;1.80;1.35;;;21.40;71.00;;;;;;5032406;28;20194;-46
2022/12/25 08:37:26;;;;;;;2.40;2.05;;;21.40;71.00;;;;;;5019663;28;20203;-42
2022/12/25 08:39:54;;;;;;;2.13;1.58;;;21.50;71.40;;;;;;5029570;28;20194;-41
2022/12/25 08:42:20;;;;;;;3.78;1.20;;;21.50;71.80;;;;;;5020796;28;20204;-42
2022/12/25 08:44:47;;;;;;;2.40;1.50;;;21.40;71.20;;;;;;5031052;28;20900;-42
2022/12/25 08:47:14;;;;;;;3.22;1.77;;;21.40;71.00;;;;;;5025653;28;20218;-44
2022/12/25 08:49:40;;;;;;;1.95;1.50;;;21.40;71.30;;;;;;5026973;28;20193;-42
2022/12/25 08:52:07;;;;;;;2.10;1.63;;;21.30;71.60;;;;;;5024776;28;20197;-46
2022/12/25 08:54:35;;;;;;;3.92;1.42;;;21.30;71.40;;;;;;5025384;28;20215;-45
2022/12/25 08:57:03;;;;;;;1.70;1.40;;;21.30;71.40;;;;;;5027990;28;20212;-44
2022/12/25 08:59:30;;;;;;;4.75;1.60;;;21.20;71.30;;;;;;5027757;28;20197;-44
2022/12/25 09:01:56;;;;;;;1.75;1.42;;;21.20;71.20;;;;;;5027054;28;20193;-42
2022/12/25 09:04:23;;;;;;;1.45;1.33;;;21.20;71.10;;;;;;5030087;28;20208;-43
2022/12/25 09:06:50;;;;;;;1.75;1.55;;;21.20;70.90;;;;;;5021714;28;20696;-41
2022/12/25 09:09:17;;;;;;;1.55;1.30;;;21.30;70.80;;;;;;5027323;28;20200;-47
2022/12/25 09:11:43;;;;;;;1.35;1.20;;;21.40;70.70;;;;;;5030984;28;20193;-41
2022/12/25 09:14:13;;;;;;;2.05;1.75;;;21.40;70.60;;;;;;5029060;28;20610;-44
2022/12/25 09:16:39;;;;;;;3.08;1.52;;;21.40;70.30;;;;;;5029887;28;20200;-45
2022/12/25 09:19:06;;;;;;;4.07;1.35;;;21.40;70.10;;;;;;5028630;28;20316;-43
2022/12/25 09:21:33;;;;;;;2.85;2.33;;;21.50;70.10;;;;;;5028944;28;20211;-45
2022/12/25 09:23:59;;;;;;;2.80;1.45;;;21.50;70.00;;;;;;5031364;28;20219;-45
2022/12/25 09:26:26;;;;;;;1.75;1.60;;;21.50;70.40;;;;;;5030960;28;20587;-43
2022/12/25 09:28:53;;;;;;;2.45;1.20;;;21.50;72.00;;;;;;5031550;28;20296;-44
2022/12/25 09:31:22;;;;;;;1.35;1.20;;;21.50;71.00;;;;;;5035012;28;20193;-42
2022/12/25 09:33:50;;;;;;;2.10;1.35;;;21.50;71.10;;;;;;5029451;28;20218;-44
2022/12/25 09:36:17;;;;;;;1.65;1.30;;;21.50;71.00;;;;;;5032235;28;20209;-42
2022/12/25 09:38:43;;;;;;;1.77;1.67;;;21.60;71.10;;;;;;5019651;28;20576;-42
2022/12/25 09:41:15;;;;;;;1.73;1.63;;;21.60;71.10;;;;;;5033714;28;20189;-43
2022/12/25 09:43:47;;;;;;;1.75;1.65;;;21.50;71.50;;;;;;5024463;28;20481;-41
2022/12/25 09:46:18;;;;;;;7.85;1.40;;;21.40;71.40;;;;;;5034685;28;20250;-46
2022/12/25 09:48:53;;;;;;;2.45;1.40;;;21.40;71.50;;;;;;5036399;28;20192;-43
2022/12/25 09:51:21;;;;;;;1.75;1.40;;;21.40;71.20;;;;;;5036313;28;20246;-41
2022/12/25 09:53:55;;;;;;;1.85;1.50;;;21.40;71.00;;;;;;5031293;28;20204;-44
2022/12/25 09:56:24;;;;;;;1.85;1.00;;;21.40;70.90;;;;;;5035105;28;20216;-42
2022/12/25 09:58:51;;;;;;;1.50;1.30;;;21.40;70.80;;;;;;5033628;28;20207;-42
2022/12/25 10:01:28;;;;;;;2.85;1.48;;;21.40;70.70;;;;;;5035125;28;20650;-42
2022/12/25 10:04:24;;;;;;;2.67;1.35;;;21.40;70.80;;;;;;5019124;28;20200;-43
2022/12/25 10:07:04;;;;;;;1.90;1.33;;;21.40;70.30;;;;;;5019795;28;20222;-42
2022/12/25 10:09:46;;;;;;;2.92;1.60;;;21.50;70.30;;;;;;5022869;28;20199;-42
2022/12/25 10:12:26;;;;;;;1.30;1.00;;;21.50;70.10;;;;;;5027887;28;20197;-42
2022/12/25 10:15:05;;;;;;;1.40;1.20;;;21.50;69.90;;;;;;5033182;28;20200;-41
2022/12/25 10:17:41;;;;;;;2.55;1.83;;;21.50;70.50;;;;;;5030423;28;20202;-41
2022/12/25 10:20:21;;;;;;;2.10;1.13;;;21.60;69.60;;;;;;5032227;28;20220;-40
2022/12/25 10:22:53;;;;;;;1.93;1.30;;;21.50;69.40;;;;;;5020838;28;20676;-41
2022/12/25 10:25:22;;;;;;;2.47;1.55;;;21.60;69.30;;;;;;5031285;28;20478;-40
2022/12/25 10:27:52;;;;;;;1.85;1.35;;;21.60;69.20;;;;;;5029921;28;20243;-42
2022/12/25 10:30:22;;;;;;;1.35;1.25;;;21.70;69.00;;;;;;5028600;28;20204;-43
2022/12/25 10:32:49;;;;;;;1.30;1.10;;;21.60;68.90;;;;;;5031421;28;20266;-44
2022/12/25 10:35:19;;;;;;;1.43;1.10;;;21.70;68.90;;;;;;5033185;28;20791;-47
2022/12/25 10:37:52;;;;;;;1.90;1.80;;;21.70;68.80;;;;;;5025994;28;20464;-42
2022/12/25 10:40:29;;;;;;;1.42;1.27;;;21.60;68.70;;;;;;5037905;28;20198;-43
2022/12/25 10:43:02;;;;;;;3.50;1.30;;;21.60;68.70;;;;;;5021945;28;20682;-41
2022/12/25 10:45:29;;;;;;;1.52;1.13;;;21.60;68.70;;;;;;5018342;28;20208;-45
2022/12/25 10:48:04;;;;;;;1.73;1.30;;;21.60;68.70;;;;;;5017240;28;20234;-45
2022/12/25 10:50:33;;;;;;;1.90;1.45;;;21.50;68.90;;;;;;5023927;28;20199;-44
2022/12/25 10:53:03;;;;;;;2.08;1.25;;;21.50;69.20;;;;;;5024702;28;20232;-44
2022/12/25 10:55:29;;;;;;;1.98;1.65;;;21.50;69.40;;;;;;5022429;28;20199;-45
2022/12/25 10:57:57;;;;;;;1.10;1.00;;;21.40;69.60;;;;;;5025672;28;20212;-44
2022/12/25 11:00:26;;;;;;;1.63;1.52;;;21.40;69.70;;;;;;5031126;28;20292;-41
2022/12/25 11:02:53;;;;;;;1.70;1.30;;;21.40;69.60;;;;;;5027301;28;20463;-43
2022/12/25 11:05:26;;;;;;;1.65;1.48;;;21.40;69.60;;;;;;5029952;28;20209;-43
2022/12/25 11:07:55;;;;;;;2.38;1.38;;;21.40;69.50;;;;;;5023766;28;20976;-41
2022/12/25 11:10:31;;;;;;;2.35;1.67;;;21.40;69.50;;;;;;5022647;28;20198;-43
2022/12/25 11:12:59;;;;;;;1.50;1.10;;;21.40;69.60;;;;;;5027409;28;20207;-42
2022/12/25 11:15:38;;;;;;;2.40;1.70;;;21.40;69.60;;;;;;5027603;28;20201;-42
2022/12/25 11:18:18;;;;;;;1.42;1.33;;;21.40;69.70;;;;;;5023496;28;20200;-42
2022/12/25 11:20:49;;;;;;;2.17;1.20;;;21.40;69.60;;;;;;5029862;28;20607;-45
2022/12/25 11:23:19;;;;;;;1.40;1.30;;;21.40;69.50;;;;;;5028648;28;20274;-43
2022/12/25 11:25:55;;;;;;;4.72;1.50;;;21.40;69.50;;;;;;5027449;28;20208;-46
2022/12/25 11:28:22;;;;;;;1.85;1.13;;;21.40;69.40;;;;;;5032146;28;20202;-42
2022/12/25 11:30:54;;;;;;;1.23;1.10;;;21.50;69.60;;;;;;5025952;28;20204;-43
2022/12/25 11:33:27;;;;;;;1.23;1.10;;;21.40;69.50;;;;;;5028581;28;20250;-46
2022/12/25 11:35:57;;;;;;;1.77;1.30;;;21.40;69.60;;;;;;5030483;28;20675;-44
2022/12/25 11:38:27;;;;;;;2.00;1.80;;;21.40;69.60;;;;;;5026524;28;20192;-41
2022/12/25 11:40:57;;;;;;;1.42;1.33;;;21.40;69.90;;;;;;5034734;28;20259;-45
2022/12/25 11:43:29;;;;;;;2.70;1.67;;;21.40;70.00;;;;;;5037480;28;20610;-42
2022/12/25 11:46:01;;;;;;;1.35;1.13;;;21.50;69.70;;;;;;5020667;28;20231;-43
2022/12/25 11:48:33;;;;;;;3.35;1.52;;;21.40;69.80;;;;;;5029487;28;20195;-45
2022/12/25 11:51:02;;;;;;;1.77;1.50;;;21.50;69.80;;;;;;5023545;28;20216;-43
2022/12/25 11:53:37;;;;;;;2.50;1.80;;;21.50;69.60;;;;;;5024010;28;20612;-45
2022/12/25 11:56:09;;;;;;;1.90;1.15;;;21.50;69.50;;;;;;5029747;28;20294;-42
2022/12/25 11:58:39;;;;;;;1.58;1.48;;;21.60;69.50;;;;;;5026646;28;21875;-44
2022/12/25 12:01:16;;;;;;;1.85;1.50;;;21.50;69.30;;;;;;5030207;28;20193;-41
2022/12/25 12:03:44;;;;;;;4.68;1.25;;;21.50;69.30;;;;;;5029363;28;20262;-47
2022/12/25 12:06:17;;;;;;;1.48;1.20;;;21.50;69.30;;;;;;5019030;28;20200;-45
2022/12/25 12:08:48;;;;;;;1.87;1.33;;;21.50;69.30;;;;;;5016409;28;20197;-47
2022/12/25 12:11:19;;;;;;;1.70;1.33;;;21.50;69.30;;;;;;5030036;28;20870;-45
2022/12/25 12:14:06;;;;;;;1.48;1.33;;;21.50;69.20;;;;;;5024596;28;20597;-47
2022/12/25 12:16:34;;;;;;;28.35;2.70;;;21.50;70.00;;;;;;5033604;28;20210;-46
2022/12/25 12:19:11;;;;;;;1.98;1.52;;;21.50;70.10;;;;;;5033947;28;20197;-46
2022/12/25 12:21:42;;;;;;;2.20;1.38;;;21.50;70.50;;;;;;5027006;28;20234;-51
2022/12/25 12:24:14;;;;;;;2.75;1.52;;;21.70;70.50;;;;;;5040256;28;20674;-46
2022/12/25 12:26:43;;;;;;;3.28;1.35;;;21.70;70.30;;;;;;5039881;28;20223;-45
2022/12/25 12:29:24;;;;;;;7.63;1.80;;;21.80;70.20;;;;;;5031129;28;20197;-45
2022/12/25 12:31:51;;;;;;;1.65;1.55;;;21.80;70.10;;;;;;5023357;28;20196;-44
2022/12/25 12:34:22;;;;;;;1.75;1.20;;;21.80;70.10;;;;;;5035394;28;20664;-44
2022/12/25 12:36:50;;;;;;;1.83;1.40;;;21.80;70.30;;;;;;5036523;28;20205;-47
2022/12/25 12:39:25;;;;;;;1.75;1.45;;;21.80;70.20;;;;;;5042243;28;20606;-45
2022/12/25 12:41:52;;;;;;;2.00;1.70;;;21.80;70.10;;;;;;5038532;28;20196;-44
2022/12/25 12:44:32;;;;;;;2.65;1.30;;;21.90;70.10;;;;;;5023681;28;20208;-43
2022/12/25 12:46:59;;;;;;;2.97;2.05;;;21.90;70.20;;;;;;5029862;28;20216;-51
2022/12/25 12:49:28;;;;;;;2.85;1.10;;;22.00;70.10;;;;;;5037144;28;20658;-52
2022/12/25 12:52:06;;;;;;;1.73;1.35;;;22.10;70.10;;;;;;5033309;28;20196;-47
2022/12/25 12:54:55;;;;;;;2.20;1.58;;;22.20;70.00;;;;;;5034095;28;20675;-50
2022/12/25 12:57:28;;;;;;;1.40;1.30;;;22.20;69.70;;;;;;5037149;28;20228;-53
2022/12/25 12:59:56;;;;;;;4.93;1.33;;;22.20;69.70;;;;;;5037984;28;20208;-49
2022/12/25 13:02:57;;;;;;;2.97;1.60;;;22.20;70.10;;;;;;5038777;28;20204;-48
2022/12/25 13:05:33;;;;;;;1.90;1.40;;;22.30;69.80;;;;;;5039774;28;20196;-47
2022/12/25 13:08:13;;;;;;;3.63;1.63;;;22.20;69.90;;;;;;5041262;28;20223;-50
2022/12/25 13:10:46;;;;;;;1.60;1.48;;;22.30;69.80;;;;;;5042534;28;20878;-51
2022/12/25 13:13:18;;;;;;;2.67;2.05;;;22.30;69.70;;;;;;5027736;28;20558;-47
2022/12/25 13:15:46;;;;;;;2.28;1.80;;;22.30;69.60;;;;;;5030679;28;20204;-47
2022/12/25 13:18:14;;;;;;;3.50;1.73;;;22.30;69.70;;;;;;5034737;28;20199;-47
2022/12/25 13:20:46;;;;;;;3.78;1.50;;;22.30;69.70;;;;;;5037220;28;20993;-49
2022/12/25 13:23:24;;;;;;;1.40;1.30;;;22.30;69.70;;;;;;5034326;28;20200;-47
2022/12/25 13:25:54;;;;;;;2.10;1.65;;;22.30;69.90;;;;;;5034093;28;20292;-50
2022/12/25 13:28:28;;;;;;;2.03;1.50;;;22.30;70.00;;;;;;5037221;28;20228;-47
2022/12/25 13:31:02;;;;;;;2.67;1.80;;;22.30;70.10;;;;;;5036818;28;20191;-48
2022/12/25 13:33:29;;;;;;;1.95;1.30;;;22.20;70.00;;;;;;5038585;28;20465;-45
2022/12/25 13:35:56;;;;;;;1.80;1.63;;;22.10;70.60;;;;;;5028236;28;20192;-47
2022/12/25 13:38:25;;;;;;;1.92;1.75;;;22.20;71.20;;;;;;5042648;28;20259;-47
2022/12/25 13:43:41;;;;;;;2.75;1.90;;;22.20;70.70;;;;;;5035669;28;20498;-47
2022/12/25 13:46:12;;;;;;;1.90;1.70;;;22.20;70.80;;;;;;5036848;28;20201;-46
2022/12/25 13:48:39;;;;;;;2.00;1.63;;;22.20;70.70;;;;;;5030713;28;20490;-46
2022/12/25 13:51:06;;;;;;;2.10;1.83;;;22.20;70.70;;;;;;5041531;28;20880;-44
2022/12/25 13:53:32;;;;;;;2.50;1.57;;;22.20;70.70;;;;;;5039992;28;20216;-45
2022/12/25 13:56:00;;;;;;;2.77;1.60;;;22.20;70.80;;;;;;5035389;28;20486;-47
2022/12/25 13:58:29;;;;;;;4.47;3.75;;;22.20;70.40;;;;;;5044142;28;20458;-46
2022/12/25 14:00:58;;;;;;;3.70;3.17;;;21.50;69.20;;;;;;5034146;28;20286;-47
2022/12/25 14:03:30;;;;;;;5.15;4.03;;;20.90;70.70;;;;;;5038606;28;20229;-45
2022/12/25 14:05:58;;;;;;;3.80;3.15;;;20.70;71.20;;;;;;5027627;28;20197;-46
2022/12/25 14:08:27;;;;;;;3.97;3.20;;;20.40;71.60;;;;;;5024812;28;20228;-47
2022/12/25 14:10:55;;;;;;;4.25;3.83;;;20.30;72.40;;;;;;5026843;28;20204;-45
2022/12/25 14:13:26;;;;;;;4.65;3.88;;;20.20;72.80;;;;;;5028163;28;20200;-44
2022/12/25 14:15:54;;;;;;;3.65;3.35;;;20.10;72.80;;;;;;5035500;28;20649;-47
2022/12/25 14:18:23;;;;;;;4.38;3.97;;;19.90;73.50;;;;;;5028257;28;20208;-45
2022/12/25 14:20:59;;;;;;;4.35;4.05;;;19.70;73.90;;;;;;5035821;28;20209;-45
2022/12/25 14:23:27;;;;;;;6.25;5.63;;;19.50;74.60;;;;;;5032767;28;20219;-44
2022/12/25 14:25:53;;;;;;;9.65;7.40;;;19.40;75.30;;;;;;5024502;28;20195;-45
2022/12/25 14:28:25;;;;;;;6.50;5.90;;;19.30;75.70;;;;;;5043059;28;20223;-47
2022/12/25 14:30:52;;;;;;;6.30;5.70;;;19.20;76.10;;;;;;5034786;28;20223;-45
2022/12/25 14:33:21;;;;;;;6.70;4.53;;;19.00;76.60;;;;;;5035298;28;20193;-39
2022/12/25 14:35:49;;;;;;;5.15;4.63;;;19.20;77.50;;;;;;5028685;28;20207;-46
2022/12/25 14:38:25;;;;;;;4.63;4.22;;;19.70;77.40;;;;;;5037328;28;20202;-46
2022/12/25 14:41:00;;;;;;;6.30;4.50;;;20.40;75.90;;;;;;5033038;28;20192;-46
2022/12/25 14:43:29;;;;;;;5.75;4.70;;;20.80;73.80;;;;;;5026490;28;20199;-47
2022/12/25 14:45:58;;;;;;;5.53;4.50;;;21.20;73.10;;;;;;5022763;28;20207;-48